Airfield :
LOGIN :

Register | Disclaimer

   EN    FR    IT 

 










Legend :    VFR   Marginal VFR   IFR   Intensive IFR   Very Intensive IFR
Visi :
Ceiling :
>= 8 km
>= 3000ft
5 to 8 km
1000 to 3000 ft
1500m to 5 km
500 to 1000 ft
800 to 1500m
200 to 500 ft
< 800m
< 200 ft
Symbols :   Thunderstorms  Fog  Heavy snow  Heavy precipitations  Wind > 20 kt
SIGMETs :     Misc.  Thunderstorms  Icing  Turbulence  Mountain Waves  Volcanic Ashes






- Airport Elevation : 266 ft
- IATA code : NCL


EGNT - Newcastle

CURRENT METAR :
  • 200620Z VRB03KT 7000 BKN006 03/03 Q1012

EXPIRED METARs :
  • 200550Z 16005KT 100V190 8000 BKN006 03/// Q1012
  • 200520Z 16005KT 090V200 8000 BKN006 03/// Q1012
  • 200450Z 16006KT 130V200 8000 BKN006 03/// Q1012
  • 200420Z 16005KT 110V200 6000 BKN006 03/// Q1012
  • 200350Z 17008KT 120V210 6000 BKN005 03/// Q1012

TAF TAF EGNT
Valid from the 20 at 06:00 until the 21 at 06:00 UTC


200455Z 2006/2106 14005KT 1400 BR BKN002
TEMPO 2006/2009 2000 SCT002
PROB30
TEMPO 2006/2009 6000 NSW
BECMG 2009/2012 9999 NSW SCT030
ATIS : +44 191 214 3400



MET'MAP, your aeronautical weather chart ! - Copyright ORBIFLY December 2007 - Disclaimer

ORBIFLY MET'MAP TEAM :

Programming & Development : Alexandra Zaïnal
Concept & Development : Baudouin d'Aumeries
Co-Development & Prog : Marc-Olivier Méhu
Technical & hardware support : Manuel Goepfert

Contact : metmap@orbifly.com




SOURCES & CREDITS :

   NOAA